Thunder radar more information blitzortung!


Löydät sääaseman tiedot myös:

European Weather Network

Finland Weather Exchange

Weather Underground

AWEKAS



Weather Underground säähistoriasivu

Päivittäin yhteenveto Syyskuu 13, 2017 Yksiköt:  Metriset    Englantilaiset   Molemmat
« Edellinen Päivä
Seuraava Päivä »
Päivittäin Viikoittain Kuukausittain Vuosittain Mukautettu
  Korkea: Matala: Keskiarvo:
Lämpötila: -17.8 °C -13.8 °C -11.1 °C
Kastepiste: -17.8 °C -14.1 °C -11.6 °C
Kosteus: Humidity % 79 % 93 %
Tuulen nopeus: 0 km/h 0 km/h 0.8 km/h
Tuulenpuuska: 0 km/h - -
Tuuli:- - SSW
Ilmanpaine: 0 hPa 33545.1 hPa -
Sade: 7.62 mm    
Historical Graphs
 
 
Taulukkotiedot Syyskuu 13, 2017
Aika Lämpötila Kastepiste Ilmanpaine Tuuli Tuulen nopeus Tuulenpuuska Kosteus Sademäärä (tunneittain)
-17.8 °C -17.8 °C 0 hPa Calm     Humidity % 0 mm
00:00 -12.4 °C -12.8 °C 33751.6 hPa Calm     96 % 0 mm
00:15 -12.4 °C -12.8 °C 33751.6 hPa Calm     96 % 0 mm
00:30 -12.6 °C -12.8 °C 33751.6 hPa Calm     97 % 0 mm
00:45 -12.4 °C -12.7 °C 33751.6 hPa Calm     97 % 0 mm
01:00 -12.4 °C -12.6 °C 33751.6 hPa Calm   5.1 km/h 97 % 0 mm
01:15 -12.2 °C -12.5 °C 33751.6 hPa Calm   5.1 km/h 97 % 0 mm
01:45 -12.2 °C -12.4 °C 33751.6 hPa Calm   5.1 km/h 97 % 0 mm
02:00 -12.1 °C -12.4 °C 33751.6 hPa Calm   5.1 km/h 97 % 0 mm
02:15 -12.1 °C -12.4 °C 33751.6 hPa Calm   5.1 km/h 97 % 0 mm
02:30 -12.1 °C -12.3 °C 33751.6 hPa Calm     97 % 0 mm
02:45 -11.9 °C -12.2 °C 33751.6 hPa Calm   5.1 km/h 97 % 0 mm
03:00 -11.8 °C -12 °C 33751.6 hPa Calm     98 % 0 mm
03:15 -11.8 °C -11.9 °C 33741.5 hPa Calm   5.1 km/h 98 % 0 mm
03:30 -11.8 °C -11.9 °C 33731.3 hPa Calm     98 % 0 mm
03:45 -11.7 °C -11.9 °C 33731.3 hPa Calm     98 % 0 mm
04:00 -11.7 °C -11.9 °C 33731.3 hPa Calm     98 % 0 mm
04:15 -11.7 °C -11.9 °C 33731.3 hPa Calm     98 % 0 mm
04:30 -11.6 °C -11.8 °C 33731.3 hPa Calm   2.6 km/h 98 % 0 mm
04:45 -11.6 °C -11.8 °C 33731.3 hPa Calm     98 % 0 mm
05:00 -11.5 °C -11.7 °C 33717.8 hPa Calm   2.6 km/h 98 % 0 mm
05:15 -11.4 °C -11.6 °C 33717.8 hPa Calm     98 % 0 mm
05:30 -11.4 °C -11.6 °C 33717.8 hPa Calm   10.3 km/h 98 % 0 mm
05:45 -11.2 °C -11.4 °C 33717.8 hPa Calm     98 % 0 mm
06:00 -11.2 °C -11.4 °C 33717.8 hPa Calm     98 % 0 mm
06:15 -11.2 °C -11.3 °C 33707.6 hPa Calm   5.1 km/h 98 % 0 mm
06:30 -11.2 °C -11.3 °C 33707.6 hPa Calm     98 % 0 mm
06:45 -11.1 °C -11.3 °C 33707.6 hPa Calm   7.7 km/h 98 % 0 mm
07:00 -11.1 °C -11.3 °C 33707.6 hPa Calm     98 % 0 mm
07:15 -11.1 °C -11.3 °C 33694.1 hPa Calm     98 % 0 mm
07:30 -11.1 °C -11.3 °C 33694.1 hPa Calm     98 % 0 mm
07:45 -11.1 °C -11.2 °C 33694.1 hPa Calm     98 % 0 mm
08:00 -11 °C -11.2 °C 33694.1 hPa South 2.6 km/h 18.2 km/h 98 % 0 mm
08:15 -10.9 °C -11.1 °C 33683.9 hPa Calm   5.1 km/h 98 % 0 mm
08:30 -10.9 °C -11.1 °C 33673.8 hPa Calm   10.3 km/h 98 % 0 mm
08:45 -10.9 °C -11.1 °C 33673.8 hPa Calm   12.9 km/h 98 % 0 mm
09:00 -10.8 °C -11.1 °C 33673.8 hPa Calm   10.3 km/h 97 % 0 mm
09:15 -10.8 °C -11.1 °C 33660.2 hPa Calm   10.3 km/h 97 % 0 mm
09:30 -10.8 °C -11.1 °C 33660.2 hPa Calm   12.9 km/h 97 % 0 mm
09:45 -10.8 °C -11.1 °C 33660.2 hPa Calm   5.1 km/h 97 % 0 mm
10:00 -10.8 °C -11.2 °C 33660.2 hPa Calm   5.1 km/h 96 % 0 mm
10:15 -10.8 °C -11.1 °C 33660.2 hPa Calm   10.3 km/h 96 % 0 mm
10:30 -10.7 °C -11.1 °C 33660.2 hPa Calm   10.3 km/h 96 % 0 mm
10:45 -10.6 °C -10.9 °C 33660.2 hPa SE 2.6 km/h 12.9 km/h 96 % 0 mm
11:00 -10.2 °C -10.6 °C 33650.1 hPa Calm   18.2 km/h 96 % 0 mm
11:15 -9.9 °C -10.7 °C 33650.1 hPa South 5.1 km/h 20.8 km/h 92 % 0 mm
11:30 -9.8 °C -10.8 °C 33650.1 hPa South 5.1 km/h 31.1 km/h 89 % 0 mm
11:45 -9.7 °C -10.7 °C 33650.1 hPa SSW 5.1 km/h 15.6 km/h 89 % 0 mm
12:00 -9.7 °C -10.9 °C 33650.1 hPa South 5.1 km/h 20.8 km/h 87 % 0 mm
12:15 -9.7 °C -10.9 °C 33639.9 hPa SSE 2.6 km/h 12.9 km/h 87 % 0 mm
12:30 -9.6 °C -10.7 °C 33639.9 hPa South 2.6 km/h 12.9 km/h 88 % 0 mm
12:45 -9.5 °C -10.7 °C 33639.9 hPa Calm   10.3 km/h 87 % 0 mm
13:00 -9.4 °C -10.7 °C 33639.9 hPa SSW 2.6 km/h 12.9 km/h 86 % 0 mm
13:15 -9.6 °C -10.6 °C 33626.4 hPa Calm   10.3 km/h 89 % 7.62 mm
13:30 -9.4 °C -10.6 °C 33626.4 hPa Calm   5.1 km/h 88 % 7.62 mm
13:45 -9.1 °C -10.6 °C 33626.4 hPa South 7.7 km/h 23.3 km/h 84 % 7.62 mm
14:00 -9 °C -10.9 °C 33626.4 hPa South 5.1 km/h 23.3 km/h 80 % 7.62 mm
14:15 -8.6 °C -10.6 °C 33616.2 hPa South 5.1 km/h 18.2 km/h 79 % 0 mm
14:30 -8.7 °C -10.7 °C 33616.2 hPa SSW 5.1 km/h 20.8 km/h 79 % 0 mm
14:45 -9.1 °C -10.3 °C 33616.2 hPa WSW 2.6 km/h 7.7 km/h 86 % 0 mm
15:00 -9.1 °C -10.4 °C 33616.2 hPa Calm   5.1 km/h 86 % 0 mm
15:15 -9.2 °C -10.3 °C 33616.2 hPa Calm     88 % 0 mm
15:30 -9.2 °C -10.2 °C 33616.2 hPa Calm   10.3 km/h 89 % 0 mm
15:45 -9.4 °C -10.3 °C 33616.2 hPa SSW 2.6 km/h 18.2 km/h 91 % 0 mm
16:00 -9.2 °C -10.1 °C 33616.2 hPa SSW 2.6 km/h 12.9 km/h 91 % 0 mm
16:15 -9.3 °C -10.4 °C 33616.2 hPa SW 2.6 km/h 15.6 km/h 88 % 0 mm
16:30 -9.6 °C -10.8 °C 33602.7 hPa SW 2.6 km/h 15.6 km/h 87 % 0 mm
16:45 -9.9 °C -10.8 °C 33616.2 hPa SSW 5.1 km/h 20.8 km/h 91 % 0 mm
17:00 -10.2 °C -10.8 °C 33602.7 hPa Calm   10.3 km/h 93 % 0 mm
17:15 -10.1 °C -10.7 °C 33602.7 hPa Calm   5.1 km/h 94 % 0 mm
17:30 -9.8 °C -10.3 °C 33592.5 hPa Calm     95 % 0 mm
17:45 -9.7 °C -10.2 °C 33592.5 hPa Calm     94 % 0 mm
18:00 -9.8 °C -10.3 °C 33592.5 hPa Calm   2.6 km/h 94 % 0 mm
18:15 -9.8 °C -10.3 °C 33592.5 hPa Calm   5.1 km/h 95 % 0 mm
18:30 -9.9 °C -10.5 °C 33592.5 hPa Calm   2.6 km/h 93 % 0 mm
18:45 -10.2 °C -10.9 °C 33592.5 hPa SW 2.6 km/h 15.6 km/h 92 % 0 mm
19:00 -10.3 °C -10.9 °C 33582.3 hPa Calm     93 % 0 mm
19:15 -10.5 °C -11.2 °C 33582.3 hPa Calm     93 % 0 mm
19:30 -10.7 °C -11.2 °C 33582.3 hPa Calm     94 % 0 mm
19:45 -10.9 °C -11.4 °C 33582.3 hPa Calm     94 % 0 mm
20:00 -11.2 °C -11.7 °C 33582.3 hPa Calm     94 % 0 mm
20:15 -11.4 °C -11.9 °C 33582.3 hPa Calm     94 % 0 mm
20:30 -11.8 °C -12.3 °C 33582.3 hPa Calm     94 % 0 mm
20:45 -12.1 °C -12.6 °C 33582.3 hPa Calm     94 % 0 mm
21:00 -12.4 °C -12.8 °C 33582.3 hPa Calm     95 % 0 mm
21:15 -12.6 °C -13 °C 33568.8 hPa Calm     95 % 0 mm
21:30 -12.8 °C -13.2 °C 33568.8 hPa Calm     95 % 0 mm
21:45 -13 °C -13.4 °C 33568.8 hPa Calm     95 % 0 mm
22:00 -13.2 °C -13.6 °C 33558.6 hPa Calm     95 % 0 mm
22:15 -13.4 °C -13.8 °C 33558.6 hPa Calm     96 % 0 mm
22:30 -13.5 °C -13.8 °C 33558.6 hPa Calm     96 % 0 mm
22:45 -13.7 °C -14 °C 33545.1 hPa Calm     96 % 0 mm
23:00 -13.7 °C -14.1 °C 33545.1 hPa Calm     96 % 0 mm
23:15 -13.8 °C -14.1 °C 33545.1 hPa Calm     96 % 0 mm
23:30 -13.7 °C -14 °C 33545.1 hPa Calm     97 % 0 mm
23:45 -13.6 °C -13.8 °C 33545.1 hPa Calm     97 % 0 mm
Esan sääasema
Terveisin Weather Underground - 2.75 mb

Alkuperäinen skripti  Jim McMurry - jmcmurry@mwt.net Sovitettu myös templatelle  Wim van der Kuil - Leuven-Template.eu

Laitteet joita käytämme:

Sääasema
Davis VP2

Sääasemaohjelma
Cumulus

Sääaseman tietokone
Asus EeePC

Palveluntarjoaja
Suncomet

Davis VP2

Cumulus

Asus EeePC

Suncomet